sensor_id;sensor_type;location;lat;lon;timestamp;pressure;altitude;pressure_sealevel;temperature;humidity
50268;BME280;36153;50.960;6.220;2023-02-13T00:00:58;102646.38;;;8.11;63.57
50268;BME280;36153;50.960;6.220;2023-02-13T00:04:00;102648.09;;;8.11;63.62
50268;BME280;36153;50.960;6.220;2023-02-13T00:07:02;102643.13;;;8.15;63.44
50268;BME280;36153;50.960;6.220;2023-02-13T00:10:05;102643.13;;;8.15;63.49
50268;BME280;36153;50.960;6.220;2023-02-13T00:13:07;102642.91;;;8.11;63.74
50268;BME280;36153;50.960;6.220;2023-02-13T00:16:09;102633.69;;;8.16;63.73
50268;BME280;36153;50.960;6.220;2023-02-13T00:19:11;102634.47;;;8.15;63.79
50268;BME280;36153;50.960;6.220;2023-02-13T00:22:12;102629.50;;;8.03;63.97
50268;BME280;36153;50.960;6.220;2023-02-13T00:25:19;102631.19;;;8.02;64.23
50268;BME280;36153;50.960;6.220;2023-02-13T00:28:20;102633.00;;;8.03;64.08
50268;BME280;36153;50.960;6.220;2023-02-13T00:31:22;102632.00;;;8.01;64.11
50268;BME280;36153;50.960;6.220;2023-02-13T00:34:24;102639.88;;;8.03;64.18
50268;BME280;36153;50.960;6.220;2023-02-13T00:37:25;102627.72;;;8.02;64.40
50268;BME280;36153;50.960;6.220;2023-02-13T00:40:25;102631.72;;;8.12;64.69
50268;BME280;36153;50.960;6.220;2023-02-13T00:43:25;102622.22;;;8.12;64.37
50268;BME280;36153;50.960;6.220;2023-02-13T00:46:26;102623.78;;;8.09;64.16
50268;BME280;36153;50.960;6.220;2023-02-13T00:49:26;102629.28;;;8.15;64.34
50268;BME280;36153;50.960;6.220;2023-02-13T00:52:26;102617.75;;;8.10;64.53
50268;BME280;36153;50.960;6.220;2023-02-13T00:55:27;102616.56;;;8.19;64.69
50268;BME280;36153;50.960;6.220;2023-02-13T00:58:27;102613.25;;;8.22;64.63
50268;BME280;36153;50.960;6.220;2023-02-13T01:01:27;102615.91;;;8.24;65.24
50268;BME280;36153;50.960;6.220;2023-02-13T01:04:28;102610.38;;;8.32;65.08
50268;BME280;36153;50.960;6.220;2023-02-13T01:07:28;102603.25;;;8.45;65.08
50268;BME280;36153;50.960;6.220;2023-02-13T01:10:28;102608.97;;;8.39;65.20
50268;BME280;36153;50.960;6.220;2023-02-13T01:13:29;102608.00;;;8.52;65.05
50268;BME280;36153;50.960;6.220;2023-02-13T01:16:29;102606.84;;;8.47;65.68
50268;BME280;36153;50.960;6.220;2023-02-13T01:19:30;102608.00;;;8.52;65.33
50268;BME280;36153;50.960;6.220;2023-02-13T01:22:30;102601.81;;;8.50;65.43
50268;BME280;36153;50.960;6.220;2023-02-13T01:25:30;102600.66;;;8.61;65.45
50268;BME280;36153;50.960;6.220;2023-02-13T01:28:31;102592.97;;;8.63;65.20
50268;BME280;36153;50.960;6.220;2023-02-13T01:31:31;102599.47;;;8.54;65.41
50268;BME280;36153;50.960;6.220;2023-02-13T01:34:32;102597.13;;;8.59;65.43
50268;BME280;36153;50.960;6.220;2023-02-13T01:37:33;102594.44;;;8.58;65.81
50268;BME280;36153;50.960;6.220;2023-02-13T01:40:33;102592.66;;;8.57;65.42
50268;BME280;36153;50.960;6.220;2023-02-13T01:46:43;102598.56;;;8.70;65.11
50268;BME280;36153;50.960;6.220;2023-02-13T01:49:45;102597.94;;;8.75;65.03
50268;BME280;36153;50.960;6.220;2023-02-13T01:52:49;102604.91;;;8.76;64.68
50268;BME280;36153;50.960;6.220;2023-02-13T01:55:59;102599.47;;;8.71;64.49
50268;BME280;36153;50.960;6.220;2023-02-13T01:59:06;102599.72;;;8.59;64.26
50268;BME280;36153;50.960;6.220;2023-02-13T02:02:08;102607.91;;;8.50;64.30
50268;BME280;36153;50.960;6.220;2023-02-13T02:05:09;102601.75;;;8.33;64.22
50268;BME280;36153;50.960;6.220;2023-02-13T02:08:11;102598.59;;;8.23;63.97
50268;BME280;36153;50.960;6.220;2023-02-13T02:11:38;102598.88;;;8.12;64.58
50268;BME280;36153;50.960;6.220;2023-02-13T02:14:41;102601.69;;;8.00;64.71
50268;BME280;36153;50.960;6.220;2023-02-13T02:17:42;102607.06;;;8.03;64.99
50268;BME280;36153;50.960;6.220;2023-02-13T02:21:14;102603.91;;;8.09;65.05
50268;BME280;36153;50.960;6.220;2023-02-13T02:28:04;102598.78;;;8.11;64.99
50268;BME280;36153;50.960;6.220;2023-02-13T02:47:54;102602.59;;;7.86;64.50
50268;BME280;36153;50.960;6.220;2023-02-13T02:51:29;102603.59;;;7.88;64.79
50268;BME280;36153;50.960;6.220;2023-02-13T02:54:55;102597.50;;;7.88;64.57
50268;BME280;36153;50.960;6.220;2023-02-13T02:58:18;102591.44;;;7.87;64.57
50268;BME280;36153;50.960;6.220;2023-02-13T03:01:39;102599.47;;;7.92;64.36
50268;BME280;36153;50.960;6.220;2023-02-13T03:05:00;102602.59;;;7.86;64.23
50268;BME280;36153;50.960;6.220;2023-02-13T03:08:20;102599.50;;;7.77;64.21
50268;BME280;36153;50.960;6.220;2023-02-13T03:11:43;102591.91;;;7.65;64.03
50268;BME280;36153;50.960;6.220;2023-02-13T03:15:06;102600.06;;;7.56;63.76
50268;BME280;36153;50.960;6.220;2023-02-13T03:18:07;102593.47;;;7.46;63.92
50268;BME280;36153;50.960;6.220;2023-02-13T03:21:50;102587.03;;;7.55;64.59
50268;BME280;36153;50.960;6.220;2023-02-13T03:25:17;102591.50;;;7.57;64.13
50268;BME280;36153;50.960;6.220;2023-02-13T03:28:42;102594.72;;;7.53;64.20
50268;BME280;36153;50.960;6.220;2023-02-13T03:32:09;102592.84;;;7.50;63.89
50268;BME280;36153;50.960;6.220;2023-02-13T03:42:11;102595.22;;;7.17;63.90
50268;BME280;36153;50.960;6.220;2023-02-13T03:45:23;102604.88;;;7.20;64.09
50268;BME280;36153;50.960;6.220;2023-02-13T03:48:45;102599.09;;;7.24;64.29
50268;BME280;36153;50.960;6.220;2023-02-13T03:55:15;102603.44;;;7.10;63.86
50268;BME280;36153;50.960;6.220;2023-02-13T03:58:40;102602.91;;;7.16;64.10
50268;BME280;36153;50.960;6.220;2023-02-13T04:02:11;102606.69;;;7.21;64.29
50268;BME280;36153;50.960;6.220;2023-02-13T04:05:17;102611.34;;;7.27;64.05
50268;BME280;36153;50.960;6.220;2023-02-13T04:08:20;102610.78;;;7.32;64.31
50268;BME280;36153;50.960;6.220;2023-02-13T04:14:37;102616.06;;;7.34;64.04
50268;BME280;36153;50.960;6.220;2023-02-13T04:17:43;102609.63;;;7.27;64.95
50268;BME280;36153;50.960;6.220;2023-02-13T04:20:45;102614.28;;;7.48;64.55
50268;BME280;36153;50.960;6.220;2023-02-13T04:23:45;102614.38;;;7.49;64.08
50268;BME280;36153;50.960;6.220;2023-02-13T04:26:46;102611.50;;;7.45;64.36
50268;BME280;36153;50.960;6.220;2023-02-13T04:29:46;102612.75;;;7.37;64.14
50268;BME280;36153;50.960;6.220;2023-02-13T04:32:46;102612.22;;;7.27;63.88
50268;BME280;36153;50.960;6.220;2023-02-13T04:35:47;102608.28;;;7.19;64.00
50268;BME280;36153;50.960;6.220;2023-02-13T04:38:47;102614.88;;;7.14;64.14
50268;BME280;36153;50.960;6.220;2023-02-13T04:41:47;102614.06;;;7.15;64.27
50268;BME280;36153;50.960;6.220;2023-02-13T04:44:48;102612.09;;;7.11;64.11
50268;BME280;36153;50.960;6.220;2023-02-13T04:47:49;102617.53;;;7.00;64.07
50268;BME280;36153;50.960;6.220;2023-02-13T04:50:50;102616.97;;;6.91;63.85
50268;BME280;36153;50.960;6.220;2023-02-13T04:53:50;102615.72;;;6.84;63.87
50268;BME280;36153;50.960;6.220;2023-02-13T04:56:51;102603.38;;;6.80;63.89
50268;BME280;36153;50.960;6.220;2023-02-13T04:59:51;102605.25;;;6.83;64.16
50268;BME280;36153;50.960;6.220;2023-02-13T05:02:52;102607.84;;;6.83;64.22
50268;BME280;36153;50.960;6.220;2023-02-13T05:05:52;102608.03;;;6.86;63.94
50268;BME280;36153;50.960;6.220;2023-02-13T05:08:53;102601.09;;;6.85;64.13
50268;BME280;36153;50.960;6.220;2023-02-13T05:11:53;102601.44;;;6.91;64.17
50268;BME280;36153;50.960;6.220;2023-02-13T05:14:53;102602.22;;;6.90;64.19
50268;BME280;36153;50.960;6.220;2023-02-13T05:17:54;102613.63;;;6.79;63.85
50268;BME280;36153;50.960;6.220;2023-02-13T05:20:54;102612.50;;;6.74;63.95
50268;BME280;36153;50.960;6.220;2023-02-13T05:24:13;102616.38;;;6.67;63.90
50268;BME280;36153;50.960;6.220;2023-02-13T05:27:13;102613.31;;;6.59;63.91
50268;BME280;36153;50.960;6.220;2023-02-13T05:30:14;102615.91;;;6.59;64.17
50268;BME280;36153;50.960;6.220;2023-02-13T05:33:14;102610.47;;;6.55;63.86
50268;BME280;36153;50.960;6.220;2023-02-13T05:36:14;102609.31;;;6.64;64.18
50268;BME280;36153;50.960;6.220;2023-02-13T05:39:15;102615.63;;;6.55;63.78
50268;BME280;36153;50.960;6.220;2023-02-13T05:42:16;102617.69;;;6.60;64.16
50268;BME280;36153;50.960;6.220;2023-02-13T05:45:16;102619.84;;;6.68;64.18
50268;BME280;36153;50.960;6.220;2023-02-13T05:48:16;102619.06;;;6.69;64.11
50268;BME280;36153;50.960;6.220;2023-02-13T05:51:18;102619.69;;;6.64;64.04
50268;BME280;36153;50.960;6.220;2023-02-13T05:54:18;102618.66;;;6.62;64.14
50268;BME280;36153;50.960;6.220;2023-02-13T05:57:19;102627.44;;;6.64;63.98
50268;BME280;36153;50.960;6.220;2023-02-13T06:00:20;102612.72;;;6.63;64.06
50268;BME280;36153;50.960;6.220;2023-02-13T06:03:20;102616.72;;;6.58;64.43
50268;BME280;36153;50.960;6.220;2023-02-13T06:06:20;102610.81;;;6.61;64.65
50268;BME280;36153;50.960;6.220;2023-02-13T06:09:22;102609.91;;;6.74;64.63
50268;BME280;36153;50.960;6.220;2023-02-13T06:12:22;102610.09;;;6.77;64.34
50268;BME280;36153;50.960;6.220;2023-02-13T06:15:22;102604.13;;;6.78;64.20
50268;BME280;36153;50.960;6.220;2023-02-13T06:18:23;102601.97;;;6.86;64.91
50268;BME280;36153;50.960;6.220;2023-02-13T06:21:23;102599.66;;;6.90;64.92
50268;BME280;36153;50.960;6.220;2023-02-13T06:24:24;102598.78;;;6.90;64.91
50268;BME280;36153;50.960;6.220;2023-02-13T06:27:24;102598.94;;;6.78;64.76
50268;BME280;36153;50.960;6.220;2023-02-13T06:30:24;102595.91;;;6.85;64.40
50268;BME280;36153;50.960;6.220;2023-02-13T06:33:25;102595.72;;;6.82;64.61
50268;BME280;36153;50.960;6.220;2023-02-13T06:36:25;102597.41;;;6.81;64.93
50268;BME280;36153;50.960;6.220;2023-02-13T06:39:25;102594.28;;;6.87;64.47
50268;BME280;36153;50.960;6.220;2023-02-13T06:42:26;102592.50;;;6.86;64.41
50268;BME280;36153;50.960;6.220;2023-02-13T06:45:26;102588.75;;;6.81;64.62
50268;BME280;36153;50.960;6.220;2023-02-13T06:48:26;102593.75;;;6.78;65.17
50268;BME280;36153;50.960;6.220;2023-02-13T06:51:27;102588.00;;;6.69;65.02
50268;BME280;36153;50.960;6.220;2023-02-13T06:54:27;102599.72;;;6.77;65.14
50268;BME280;36153;50.960;6.220;2023-02-13T06:57:27;102593.94;;;6.81;65.05
50268;BME280;36153;50.960;6.220;2023-02-13T07:00:32;102592.13;;;6.80;64.95
50268;BME280;36153;50.960;6.220;2023-02-13T07:03:32;102591.97;;;6.77;65.20
50268;BME280;36153;50.960;6.220;2023-02-13T07:06:33;102593.50;;;6.88;64.71
50268;BME280;36153;50.960;6.220;2023-02-13T07:09:33;102594.94;;;6.98;65.26
50268;BME280;36153;50.960;6.220;2023-02-13T07:12:35;102591.22;;;7.08;65.24
50268;BME280;36153;50.960;6.220;2023-02-13T07:15:36;102595.78;;;7.12;65.26
50268;BME280;36153;50.960;6.220;2023-02-13T07:18:37;102593.78;;;7.08;65.74
50268;BME280;36153;50.960;6.220;2023-02-13T07:21:37;102592.91;;;7.22;65.46
50268;BME280;36153;50.960;6.220;2023-02-13T07:24:37;102588.66;;;7.38;65.86
50268;BME280;36153;50.960;6.220;2023-02-13T07:27:38;102595.84;;;7.58;65.43
50268;BME280;36153;50.960;6.220;2023-02-13T07:30:38;102596.84;;;7.60;65.37
50268;BME280;36153;50.960;6.220;2023-02-13T07:33:38;102597.00;;;7.63;65.78
50268;BME280;36153;50.960;6.220;2023-02-13T07:36:39;102598.25;;;7.85;65.68
50268;BME280;36153;50.960;6.220;2023-02-13T07:39:39;102592.69;;;7.94;65.57
50268;BME280;36153;50.960;6.220;2023-02-13T07:42:40;102597.31;;;7.99;65.61
50268;BME280;36153;50.960;6.220;2023-02-13T07:45:40;102588.41;;;8.11;65.05
50268;BME280;36153;50.960;6.220;2023-02-13T07:48:44;102587.69;;;8.13;65.26
50268;BME280;36153;50.960;6.220;2023-02-13T07:51:44;102591.69;;;8.23;65.11
50268;BME280;36153;50.960;6.220;2023-02-13T07:54:44;102589.72;;;8.19;64.89
50268;BME280;36153;50.960;6.220;2023-02-13T07:57:48;102604.34;;;8.33;65.09
50268;BME280;36153;50.960;6.220;2023-02-13T08:00:49;102597.16;;;8.44;65.06
50268;BME280;36153;50.960;6.220;2023-02-13T08:03:49;102601.97;;;8.53;64.81
50268;BME280;36153;50.960;6.220;2023-02-13T08:06:50;102604.50;;;8.68;64.98
50268;BME280;36153;50.960;6.220;2023-02-13T08:09:50;102612.06;;;8.80;64.52
50268;BME280;36153;50.960;6.220;2023-02-13T08:13:10;102616.69;;;8.85;64.66
50268;BME280;36153;50.960;6.220;2023-02-13T08:16:12;102620.66;;;8.95;64.61
50268;BME280;36153;50.960;6.220;2023-02-13T08:19:12;102619.72;;;9.11;64.47
50268;BME280;36153;50.960;6.220;2023-02-13T08:22:12;102621.09;;;9.21;64.27
50268;BME280;36153;50.960;6.220;2023-02-13T08:25:13;102621.22;;;9.24;64.32
50268;BME280;36153;50.960;6.220;2023-02-13T08:28:13;102621.81;;;9.18;64.42
50268;BME280;36153;50.960;6.220;2023-02-13T08:31:14;102625.63;;;9.25;64.43
50268;BME280;36153;50.960;6.220;2023-02-13T08:34:14;102628.03;;;9.38;64.25
50268;BME280;36153;50.960;6.220;2023-02-13T08:37:14;102631.41;;;9.54;63.99
50268;BME280;36153;50.960;6.220;2023-02-13T08:40:15;102627.28;;;9.57;63.90
50268;BME280;36153;50.960;6.220;2023-02-13T08:43:15;102633.38;;;9.76;63.73
50268;BME280;36153;50.960;6.220;2023-02-13T08:46:16;102633.34;;;9.58;64.07
50268;BME280;36153;50.960;6.220;2023-02-13T08:49:17;102635.91;;;9.74;63.68
50268;BME280;36153;50.960;6.220;2023-02-13T08:52:17;102636.50;;;9.87;63.61
50268;BME280;36153;50.960;6.220;2023-02-13T08:55:21;102635.38;;;10.00;63.30
50268;BME280;36153;50.960;6.220;2023-02-13T08:58:22;102636.78;;;10.11;63.10
50268;BME280;36153;50.960;6.220;2023-02-13T09:01:22;102633.44;;;10.14;63.13
50268;BME280;36153;50.960;6.220;2023-02-13T09:04:23;102635.88;;;10.29;62.69
50268;BME280;36153;50.960;6.220;2023-02-13T09:07:23;102631.69;;;10.32;62.69
50268;BME280;36153;50.960;6.220;2023-02-13T09:10:24;102635.50;;;10.39;62.77
50268;BME280;36153;50.960;6.220;2023-02-13T09:13:24;102637.63;;;10.48;62.34
50268;BME280;36153;50.960;6.220;2023-02-13T09:16:25;102632.97;;;10.40;63.00
50268;BME280;36153;50.960;6.220;2023-02-13T09:19:25;102633.44;;;10.69;62.31
50268;BME280;36153;50.960;6.220;2023-02-13T09:22:25;102630.28;;;10.76;62.11
50268;BME280;36153;50.960;6.220;2023-02-13T09:25:26;102629.31;;;10.74;62.19
50268;BME280;36153;50.960;6.220;2023-02-13T09:28:28;102632.63;;;10.90;61.97
50268;BME280;36153;50.960;6.220;2023-02-13T09:31:28;102627.44;;;11.11;61.39
50268;BME280;36153;50.960;6.220;2023-02-13T09:34:29;102633.16;;;11.02;61.13
50268;BME280;36153;50.960;6.220;2023-02-13T09:37:29;102634.63;;;11.17;61.15
50268;BME280;36153;50.960;6.220;2023-02-13T09:40:39;102632.03;;;11.17;60.92
50268;BME280;36153;50.960;6.220;2023-02-13T09:43:45;102629.38;;;11.36;60.73
50268;BME280;36153;50.960;6.220;2023-02-13T09:46:48;102632.47;;;11.47;60.71
50268;BME280;36153;50.960;6.220;2023-02-13T09:49:51;102636.72;;;11.87;59.86
50268;BME280;36153;50.960;6.220;2023-02-13T09:52:54;102637.53;;;12.07;59.41
50268;BME280;36153;50.960;6.220;2023-02-13T09:56:02;102643.34;;;12.23;58.77
50268;BME280;36153;50.960;6.220;2023-02-13T10:05:57;102650.91;;;12.62;58.23
50268;BME280;36153;50.960;6.220;2023-02-13T10:09:13;102652.81;;;12.66;57.58
50268;BME280;36153;50.960;6.220;2023-02-13T10:22:42;102656.81;;;13.29;55.58
50268;BME280;36153;50.960;6.220;2023-02-13T10:28:59;102659.78;;;13.38;55.46
50268;BME280;36153;50.960;6.220;2023-02-13T10:32:26;102653.09;;;13.46;54.47
50268;BME280;36153;50.960;6.220;2023-02-13T10:35:31;102648.88;;;13.77;54.22
50268;BME280;36153;50.960;6.220;2023-02-13T10:38:37;102651.63;;;14.09;54.05
50268;BME280;36153;50.960;6.220;2023-02-13T10:46:06;102651.28;;;14.55;52.48
50268;BME280;36153;50.960;6.220;2023-02-13T11:02:23;102635.63;;;15.18;51.46
50268;BME280;36153;50.960;6.220;2023-02-13T11:05:30;102629.41;;;15.16;51.33
50268;BME280;36153;50.960;6.220;2023-02-13T11:08:33;102621.16;;;15.34;50.38
50268;BME280;36153;50.960;6.220;2023-02-13T11:11:37;102618.06;;;15.16;50.51
50268;BME280;36153;50.960;6.220;2023-02-13T11:14:52;102614.22;;;15.36;50.62
50268;BME280;36153;50.960;6.220;2023-02-13T11:17:58;102618.34;;;15.62;50.23
50268;BME280;36153;50.960;6.220;2023-02-13T11:21:03;102612.16;;;15.60;49.19
50268;BME280;36153;50.960;6.220;2023-02-13T11:24:17;102604.91;;;15.49;49.46
50268;BME280;36153;50.960;6.220;2023-02-13T11:27:22;102610.34;;;15.59;50.25
50268;BME280;36153;50.960;6.220;2023-02-13T11:30:31;102606.56;;;15.81;50.30
50268;BME280;36153;50.960;6.220;2023-02-13T11:33:32;102604.25;;;15.95;49.53
50268;BME280;36153;50.960;6.220;2023-02-13T11:36:33;102593.06;;;16.03;48.62
50268;BME280;36153;50.960;6.220;2023-02-13T11:39:33;102592.91;;;15.97;48.97
50268;BME280;36153;50.960;6.220;2023-02-13T11:42:34;102589.72;;;16.11;48.37
50268;BME280;36153;50.960;6.220;2023-02-13T11:45:35;102588.16;;;16.19;48.52
50268;BME280;36153;50.960;6.220;2023-02-13T11:48:35;102580.25;;;16.17;48.69
50268;BME280;36153;50.960;6.220;2023-02-13T11:51:37;102579.03;;;16.03;47.60
50268;BME280;36153;50.960;6.220;2023-02-13T11:54:43;102578.47;;;16.16;47.33
50268;BME280;36153;50.960;6.220;2023-02-13T11:57:56;102578.66;;;16.26;47.57
50268;BME280;36153;50.960;6.220;2023-02-13T12:04:20;102561.69;;;16.52;46.91
50268;BME280;36153;50.960;6.220;2023-02-13T12:07:27;102561.50;;;16.45;47.15
50268;BME280;36153;50.960;6.220;2023-02-13T12:10:32;102560.38;;;16.32;46.77
50268;BME280;36153;50.960;6.220;2023-02-13T12:13:37;102558.16;;;16.08;47.95
50268;BME280;36153;50.960;6.220;2023-02-13T12:16:44;102555.38;;;16.44;47.51
50268;BME280;36153;50.960;6.220;2023-02-13T12:19:49;102561.53;;;16.46;47.20
50268;BME280;36153;50.960;6.220;2023-02-13T12:23:08;102564.84;;;16.36;46.54
50268;BME280;36153;50.960;6.220;2023-02-13T12:26:25;102557.06;;;16.41;46.61
50268;BME280;36153;50.960;6.220;2023-02-13T12:47:34;102533.13;;;16.72;46.65
50268;BME280;36153;50.960;6.220;2023-02-13T13:04:46;102515.25;;;17.02;45.60
50268;BME280;36153;50.960;6.220;2023-02-13T13:21:40;102502.09;;;17.02;46.33
50268;BME280;36153;50.960;6.220;2023-02-13T13:24:57;102499.00;;;17.25;46.23
50268;BME280;36153;50.960;6.220;2023-02-13T13:28:04;102488.31;;;17.15;46.26
50268;BME280;36153;50.960;6.220;2023-02-13T13:31:09;102490.03;;;17.13;46.07
50268;BME280;36153;50.960;6.220;2023-02-13T13:34:15;102483.81;;;17.08;45.96
50268;BME280;36153;50.960;6.220;2023-02-13T13:41:04;102488.38;;;17.21;45.12
50268;BME280;36153;50.960;6.220;2023-02-13T13:47:35;102481.41;;;17.22;45.71
50268;BME280;36153;50.960;6.220;2023-02-13T13:50:39;102476.34;;;17.37;44.52
50268;BME280;36153;50.960;6.220;2023-02-13T14:03:24;102469.88;;;17.77;43.86
50268;BME280;36153;50.960;6.220;2023-02-13T14:09:40;102470.00;;;17.86;44.38
50268;BME280;36153;50.960;6.220;2023-02-13T14:12:47;102463.06;;;17.91;44.08
50268;BME280;36153;50.960;6.220;2023-02-13T14:15:50;102466.03;;;18.19;43.74
50268;BME280;36153;50.960;6.220;2023-02-13T14:18:52;102454.63;;;18.21;43.62
50268;BME280;36153;50.960;6.220;2023-02-13T14:21:53;102456.31;;;18.15;43.60
50268;BME280;36153;50.960;6.220;2023-02-13T14:24:56;102454.31;;;17.94;43.96
50268;BME280;36153;50.960;6.220;2023-02-13T14:28:02;102455.41;;;18.13;43.34
50268;BME280;36153;50.960;6.220;2023-02-13T14:31:13;102462.41;;;18.09;43.33
50268;BME280;36153;50.960;6.220;2023-02-13T14:34:19;102450.28;;;18.23;43.82
50268;BME280;36153;50.960;6.220;2023-02-13T14:37:32;102446.81;;;18.28;43.94
50268;BME280;36153;50.960;6.220;2023-02-13T14:40:48;102440.53;;;18.16;42.91
50268;BME280;36153;50.960;6.220;2023-02-13T14:43:51;102434.34;;;18.14;43.52
50268;BME280;36153;50.960;6.220;2023-02-13T14:46:53;102435.28;;;18.16;43.56
50268;BME280;36153;50.960;6.220;2023-02-13T14:49:57;102436.03;;;18.07;43.87
50268;BME280;36153;50.960;6.220;2023-02-13T14:53:03;102433.31;;;18.00;43.60
50268;BME280;36153;50.960;6.220;2023-02-13T14:56:11;102429.72;;;17.93;43.40
50268;BME280;36153;50.960;6.220;2023-02-13T14:59:17;102427.13;;;17.98;43.58
50268;BME280;36153;50.960;6.220;2023-02-13T15:02:22;102430.34;;;17.75;44.15
50268;BME280;36153;50.960;6.220;2023-02-13T15:05:30;102428.50;;;17.66;44.56
50268;BME280;36153;50.960;6.220;2023-02-13T15:08:40;102429.34;;;17.65;44.68
50268;BME280;36153;50.960;6.220;2023-02-13T15:11:42;102426.59;;;17.57;44.92
50268;BME280;36153;50.960;6.220;2023-02-13T15:14:43;102419.47;;;17.49;45.29
50268;BME280;36153;50.960;6.220;2023-02-13T15:17:43;102421.09;;;17.39;45.55
50268;BME280;36153;50.960;6.220;2023-02-13T15:20:44;102421.91;;;17.33;45.26
50268;BME280;36153;50.960;6.220;2023-02-13T15:23:49;102420.84;;;17.20;45.73
50268;BME280;36153;50.960;6.220;2023-02-13T15:27:01;102419.03;;;17.16;45.04
50268;BME280;36153;50.960;6.220;2023-02-13T15:30:19;102421.53;;;17.09;45.55
50268;BME280;36153;50.960;6.220;2023-02-13T15:33:21;102420.47;;;16.96;45.90
50268;BME280;36153;50.960;6.220;2023-02-13T15:36:24;102423.94;;;16.95;46.02
50268;BME280;36153;50.960;6.220;2023-02-13T15:39:27;102422.88;;;16.85;45.91
50268;BME280;36153;50.960;6.220;2023-02-13T15:42:28;102418.56;;;16.87;46.01
50268;BME280;36153;50.960;6.220;2023-02-13T15:45:29;102417.84;;;16.97;45.96
50268;BME280;36153;50.960;6.220;2023-02-13T15:48:31;102418.66;;;16.92;46.19
50268;BME280;36153;50.960;6.220;2023-02-13T15:51:33;102413.91;;;16.70;46.71
50268;BME280;36153;50.960;6.220;2023-02-13T15:54:34;102415.34;;;16.54;46.83
50268;BME280;36153;50.960;6.220;2023-02-13T15:57:35;102420.53;;;16.48;46.82
50268;BME280;36153;50.960;6.220;2023-02-13T16:00:39;102411.84;;;16.52;47.12
50268;BME280;36153;50.960;6.220;2023-02-13T16:03:40;102410.59;;;16.32;47.56
50268;BME280;36153;50.960;6.220;2023-02-13T16:06:43;102410.25;;;16.13;48.03
50268;BME280;36153;50.960;6.220;2023-02-13T16:09:44;102411.25;;;16.20;48.23
50268;BME280;36153;50.960;6.220;2023-02-13T16:12:45;102408.91;;;15.90;48.79
50268;BME280;36153;50.960;6.220;2023-02-13T16:16:08;102408.34;;;15.63;49.81
50268;BME280;36153;50.960;6.220;2023-02-13T16:19:26;102407.06;;;15.44;50.10
50268;BME280;36153;50.960;6.220;2023-02-13T16:25:51;102415.78;;;15.04;50.83
50268;BME280;36153;50.960;6.220;2023-02-13T16:28:52;102410.19;;;14.90;51.24
50268;BME280;36153;50.960;6.220;2023-02-13T16:32:03;102409.13;;;14.81;51.60
50268;BME280;36153;50.960;6.220;2023-02-13T16:35:26;102406.56;;;14.84;51.60
50268;BME280;36153;50.960;6.220;2023-02-13T16:41:33;102409.41;;;14.59;51.89
50268;BME280;36153;50.960;6.220;2023-02-13T16:44:34;102413.56;;;14.50;52.29
50268;BME280;36153;50.960;6.220;2023-02-13T16:47:34;102409.66;;;14.36;52.30
50268;BME280;36153;50.960;6.220;2023-02-13T16:50:35;102413.69;;;14.23;52.57
50268;BME280;36153;50.960;6.220;2023-02-13T16:53:35;102419.25;;;14.02;52.82
50268;BME280;36153;50.960;6.220;2023-02-13T17:02:48;102423.84;;;13.50;53.83
50268;BME280;36153;50.960;6.220;2023-02-13T17:05:49;102418.44;;;13.44;54.31
50268;BME280;36153;50.960;6.220;2023-02-13T17:08:51;102423.19;;;13.30;54.46
50268;BME280;36153;50.960;6.220;2023-02-13T17:11:52;102420.88;;;13.12;54.76
50268;BME280;36153;50.960;6.220;2023-02-13T17:14:52;102422.78;;;12.89;55.40
50268;BME280;36153;50.960;6.220;2023-02-13T17:17:53;102430.81;;;12.69;55.74
50268;BME280;36153;50.960;6.220;2023-02-13T17:20:54;102431.22;;;12.54;56.48
50268;BME280;36153;50.960;6.220;2023-02-13T17:23:54;102431.75;;;12.45;56.92
50268;BME280;36153;50.960;6.220;2023-02-13T17:26:55;102434.56;;;12.26;56.88
50268;BME280;36153;50.960;6.220;2023-02-13T17:29:55;102442.91;;;12.16;57.48
50268;BME280;36153;50.960;6.220;2023-02-13T17:33:02;102447.31;;;12.17;58.03
50268;BME280;36153;50.960;6.220;2023-02-13T17:36:03;102448.13;;;12.16;58.37
50268;BME280;36153;50.960;6.220;2023-02-13T17:39:04;102444.69;;;12.17;58.38
50268;BME280;36153;50.960;6.220;2023-02-13T17:42:04;102449.47;;;12.04;58.62
50268;BME280;36153;50.960;6.220;2023-02-13T17:45:05;102452.69;;;11.97;59.01
50268;BME280;36153;50.960;6.220;2023-02-13T17:48:05;102443.53;;;11.86;59.18
50268;BME280;36153;50.960;6.220;2023-02-13T17:51:10;102453.69;;;11.78;59.65
50268;BME280;36153;50.960;6.220;2023-02-13T17:54:11;102457.16;;;11.78;59.76
50268;BME280;36153;50.960;6.220;2023-02-13T17:57:13;102459.78;;;11.78;59.39
50268;BME280;36153;50.960;6.220;2023-02-13T18:00:14;102457.16;;;11.78;59.63
50268;BME280;36153;50.960;6.220;2023-02-13T18:03:15;102459.66;;;11.75;59.42
50268;BME280;36153;50.960;6.220;2023-02-13T18:06:15;102450.97;;;11.75;59.51
50268;BME280;36153;50.960;6.220;2023-02-13T18:09:16;102455.53;;;11.81;59.41
50268;BME280;36153;50.960;6.220;2023-02-13T18:12:19;102456.41;;;11.81;59.02
50268;BME280;36153;50.960;6.220;2023-02-13T18:15:20;102454.75;;;11.83;58.66
50268;BME280;36153;50.960;6.220;2023-02-13T18:18:20;102444.06;;;11.77;58.25
50268;BME280;36153;50.960;6.220;2023-02-13T18:21:21;102446.84;;;11.59;58.36
50268;BME280;36153;50.960;6.220;2023-02-13T18:24:27;102433.75;;;11.35;58.32
50268;BME280;36153;50.960;6.220;2023-02-13T18:27:28;102431.38;;;11.18;58.25
50268;BME280;36153;50.960;6.220;2023-02-13T18:30:28;102433.84;;;10.92;58.71
50268;BME280;36153;50.960;6.220;2023-02-13T18:33:28;102426.84;;;10.70;58.86
50268;BME280;36153;50.960;6.220;2023-02-13T18:36:29;102430.56;;;10.56;59.06
50268;BME280;36153;50.960;6.220;2023-02-13T18:39:29;102431.94;;;10.48;59.36
50268;BME280;36153;50.960;6.220;2023-02-13T18:42:29;102431.00;;;10.46;59.77
50268;BME280;36153;50.960;6.220;2023-02-13T18:45:30;102424.63;;;10.39;59.97